createdAt,value
2023-05-11T00:00:42.024Z,91.40
2023-05-11T00:05:51.057Z,91.30
2023-05-11T00:10:53.939Z,91.30
2023-05-11T00:16:06.519Z,91.50
2023-05-11T00:21:09.398Z,91.20
2023-05-11T00:26:11.934Z,91.30
2023-05-11T00:31:15.083Z,91.50
2023-05-11T00:36:17.964Z,91.30
2023-05-11T00:41:21.761Z,90.50
2023-05-11T00:46:24.930Z,90.60
2023-05-11T00:51:35.825Z,91.30
2023-05-11T01:01:57.775Z,90.20
2023-05-11T01:07:12.666Z,90.00
2023-05-11T01:12:24.978Z,90.30
2023-05-11T01:17:44.503Z,90.30
2023-05-11T01:23:05.891Z,91.00
2023-05-11T01:28:29.596Z,90.40
2023-05-11T01:33:37.768Z,90.00
2023-05-11T01:38:46.503Z,90.40
2023-05-11T01:43:56.270Z,90.70
2023-05-11T01:49:00.971Z,90.20
2023-05-11T01:54:08.125Z,89.70
2023-05-11T01:59:12.717Z,89.40
2023-05-11T02:04:20.007Z,89.90
2023-05-11T02:09:24.332Z,90.30
2023-05-11T02:14:34.251Z,90.20
2023-05-11T02:19:39.113Z,90.70
2023-05-11T02:24:43.050Z,90.50
2023-05-11T02:29:46.937Z,90.40
2023-05-11T02:35:13.105Z,91.10
2023-05-11T02:40:18.837Z,91.40
2023-05-11T02:45:27.756Z,91.70
2023-05-11T02:50:38.207Z,91.50
2023-05-11T02:55:47.359Z,91.40
2023-05-11T03:00:52.203Z,91.00
2023-05-11T03:05:56.411Z,90.20
2023-05-11T03:10:59.709Z,91.00
2023-05-11T03:16:03.399Z,91.30
2023-05-11T03:21:08.135Z,91.50
2023-05-11T03:26:13.386Z,91.10
2023-05-11T03:31:16.495Z,86.80
2023-05-11T03:36:21.814Z,84.20
2023-05-11T03:41:27.894Z,79.70
2023-05-11T03:46:33.295Z,75.00
2023-05-11T03:51:37.920Z,73.50
2023-05-11T03:56:48.028Z,70.00
2023-05-11T04:01:53.256Z,67.30
2023-05-11T04:06:56.168Z,66.20
2023-05-11T04:12:00.233Z,64.20
2023-05-11T04:17:04.224Z,61.40
2023-05-11T04:22:06.776Z,60.50
2023-05-11T04:27:09.515Z,58.20
2023-05-11T04:32:13.026Z,57.10
2023-05-11T04:37:15.849Z,56.90
2023-05-11T04:42:19.177Z,56.40
2023-05-11T04:47:26.028Z,54.30
2023-05-11T04:52:28.860Z,53.20
2023-05-11T04:57:31.656Z,52.70
2023-05-11T05:02:35.206Z,51.20
2023-05-11T05:07:37.973Z,51.80
2023-05-11T05:12:40.846Z,50.40
2023-05-11T05:17:44.026Z,50.80
2023-05-11T05:22:48.969Z,51.30
2023-05-11T05:27:51.781Z,50.80
2023-05-11T05:32:56.763Z,48.90
2023-05-11T05:38:01.121Z,48.00
2023-05-11T05:43:04.141Z,49.50
2023-05-11T05:48:07.191Z,48.40
2023-05-11T05:53:12.763Z,48.20
2023-05-11T05:58:16.994Z,54.00
2023-05-11T06:03:19.860Z,56.90
2023-05-11T06:08:23.284Z,62.10
2023-05-11T06:13:26.413Z,61.60
2023-05-11T06:18:34.601Z,64.90
2023-05-11T06:23:39.203Z,62.60
2023-05-11T06:33:50.157Z,63.40
2023-05-11T06:39:01.929Z,64.80
2023-05-11T06:44:05.976Z,65.20
2023-05-11T06:49:17.796Z,66.40
2023-05-11T06:54:23.789Z,65.40
2023-05-11T06:59:27.132Z,68.90
2023-05-11T07:04:29.974Z,65.20
2023-05-11T07:09:33.213Z,65.50
2023-05-11T07:14:36.013Z,61.20
2023-05-11T07:19:39.718Z,64.20
2023-05-11T07:24:43.501Z,64.70
2023-05-11T07:29:46.387Z,64.90
2023-05-11T07:34:49.388Z,62.60
2023-05-11T07:39:52.321Z,63.00
2023-05-11T07:44:55.329Z,62.60
2023-05-11T07:49:58.894Z,64.80
2023-05-11T07:55:02.035Z,64.20
2023-05-11T08:00:06.295Z,64.00
2023-05-11T08:05:17.812Z,61.50
2023-05-11T08:10:21.162Z,65.40
2023-05-11T08:15:24.838Z,65.00
2023-05-11T08:20:27.615Z,65.20
2023-05-11T08:25:55.086Z,60.90
2023-05-11T08:30:59.088Z,61.60
2023-05-11T08:36:07.283Z,62.40
2023-05-11T08:41:12.914Z,62.90
2023-05-11T08:46:21.713Z,64.00
2023-05-11T08:51:24.978Z,64.60
2023-05-11T08:56:30.388Z,61.00
2023-05-11T09:01:35.931Z,62.30
2023-05-11T09:06:40.643Z,58.90
2023-05-11T09:11:44.306Z,63.80
2023-05-11T09:16:47.423Z,60.80
2023-05-11T09:21:52.655Z,60.30
2023-05-11T09:27:09.961Z,59.80
2023-05-11T09:32:12.674Z,60.20
2023-05-11T09:37:20.176Z,59.90
2023-05-11T09:42:27.421Z,60.80
2023-05-11T09:47:39.624Z,61.50
2023-05-11T09:52:53.021Z,62.70
2023-05-11T09:57:58.317Z,60.20
2023-05-11T10:03:06.033Z,60.70
2023-05-11T10:08:08.810Z,61.90
2023-05-11T10:13:11.405Z,61.40
2023-05-11T10:18:14.314Z,61.70
2023-05-11T10:23:18.571Z,59.30
2023-05-11T10:28:22.622Z,62.30
2023-05-11T10:33:26.298Z,61.50
2023-05-11T10:38:29.091Z,58.80
2023-05-11T10:44:04.745Z,65.30
2023-05-11T10:49:10.286Z,61.50
2023-05-11T10:54:31.937Z,61.40
2023-05-11T10:59:34.732Z,58.60
2023-05-11T11:04:51.772Z,61.30
2023-05-11T11:10:05.376Z,62.40
2023-05-11T11:15:12.346Z,64.70
2023-05-11T11:20:48.840Z,57.10
2023-05-11T11:25:56.454Z,56.90
2023-05-11T11:31:35.409Z,58.90
2023-05-11T11:37:14.099Z,60.80
2023-05-11T11:42:30.460Z,60.10
2023-05-11T11:47:33.215Z,57.60
2023-05-11T11:52:36.594Z,58.00
2023-05-11T11:57:46.726Z,59.90
2023-05-11T12:02:49.820Z,60.50
2023-05-11T12:07:53.490Z,59.30
2023-05-11T12:12:59.878Z,59.70
2023-05-11T12:18:03.749Z,60.30
2023-05-11T12:23:10.533Z,60.40
2023-05-11T12:28:13.293Z,59.30
2023-05-11T12:33:16.105Z,53.90
2023-05-11T12:38:20.663Z,58.10
2023-05-11T12:43:24.596Z,55.60
2023-05-11T12:48:27.259Z,57.90
2023-05-11T12:53:38.901Z,55.30
2023-05-11T12:58:46.389Z,58.50
2023-05-11T13:03:49.347Z,56.40
2023-05-11T13:08:52.447Z,56.70
2023-05-11T13:13:57.799Z,55.50
2023-05-11T13:19:05.686Z,59.60
2023-05-11T13:24:08.476Z,56.80
2023-05-11T13:29:11.736Z,57.20
2023-05-11T13:34:17.314Z,57.80
2023-05-11T13:39:20.903Z,54.60
2023-05-11T13:44:23.612Z,53.90
2023-05-11T13:49:27.747Z,56.60
2023-05-11T13:54:32.073Z,58.40
2023-05-11T13:59:36.297Z,57.10
2023-05-11T14:04:40.532Z,57.90
2023-05-11T14:09:44.031Z,57.60
2023-05-11T14:14:49.760Z,58.00
2023-05-11T14:19:52.648Z,58.30
2023-05-11T14:24:56.294Z,56.60
2023-05-11T14:29:58.811Z,56.90
2023-05-11T14:35:03.867Z,56.70
2023-05-11T14:40:07.407Z,57.10
2023-05-11T14:45:10.933Z,58.10
2023-05-11T14:50:14.055Z,59.30
2023-05-11T14:55:17.368Z,60.00
2023-05-11T15:00:20.538Z,58.10
2023-05-11T15:05:23.630Z,58.50
2023-05-11T15:10:27.511Z,62.80
2023-05-11T15:15:35.126Z,61.90
2023-05-11T15:20:38.766Z,60.20
2023-05-11T15:25:41.717Z,59.60
2023-05-11T15:30:44.374Z,58.50
2023-05-11T15:35:50.294Z,59.60
2023-05-11T15:40:53.059Z,58.30
2023-05-11T15:45:55.795Z,58.90
2023-05-11T15:51:01.264Z,59.50
2023-05-11T15:56:04.794Z,60.00
2023-05-11T16:01:13.619Z,59.80
2023-05-11T16:06:17.619Z,61.70
2023-05-11T16:11:20.575Z,60.80
2023-05-11T16:16:23.528Z,60.50
2023-05-11T16:21:26.573Z,59.30
2023-05-11T16:26:31.399Z,59.40
2023-05-11T16:31:34.213Z,58.70
2023-05-11T16:36:37.871Z,59.80
2023-05-11T16:41:40.833Z,59.70
2023-05-11T16:46:43.602Z,59.70
2023-05-11T16:51:46.536Z,59.40
2023-05-11T16:56:50.385Z,59.00
2023-05-11T17:01:53.019Z,59.10
2023-05-11T17:06:56.823Z,58.90
2023-05-11T17:12:00.953Z,59.20
2023-05-11T17:17:07.193Z,60.30
2023-05-11T17:22:13.220Z,59.90
2023-05-11T17:27:22.866Z,60.50
2023-05-11T17:32:26.001Z,61.60
2023-05-11T17:37:32.193Z,62.40
2023-05-11T17:42:35.686Z,62.20
2023-05-11T17:47:39.489Z,63.10
2023-05-11T17:52:42.621Z,63.40
2023-05-11T17:57:47.192Z,63.90
2023-05-11T18:02:50.421Z,64.00
2023-05-11T18:07:54.144Z,65.20
2023-05-11T18:12:58.834Z,65.80
2023-05-11T18:18:02.315Z,66.70
2023-05-11T18:23:05.984Z,67.80
2023-05-11T18:28:08.772Z,67.90
2023-05-11T18:33:11.970Z,67.90
2023-05-11T18:38:14.933Z,68.70
2023-05-11T18:43:17.872Z,69.30
2023-05-11T18:48:21.531Z,70.30
2023-05-11T18:53:26.804Z,71.40
2023-05-11T18:58:29.521Z,73.00
2023-05-11T19:03:32.510Z,73.80
2023-05-11T19:08:35.809Z,73.40
2023-05-11T19:13:38.491Z,73.50
2023-05-11T19:18:41.648Z,74.10
2023-05-11T19:23:44.278Z,74.10
2023-05-11T19:28:48.104Z,74.90
2023-05-11T19:33:52.012Z,74.80
2023-05-11T19:38:55.122Z,76.00
2023-05-11T19:43:57.851Z,76.60
2023-05-11T19:49:01.003Z,77.30
2023-05-11T19:54:18.528Z,76.90
2023-05-11T19:59:32.711Z,77.50
2023-05-11T20:04:36.318Z,78.00
2023-05-11T20:09:39.168Z,78.00
2023-05-11T20:14:43.163Z,78.30
2023-05-11T20:19:46.873Z,78.40
2023-05-11T20:24:52.106Z,78.50
2023-05-11T20:29:56.448Z,79.40
2023-05-11T20:35:00.136Z,79.10
2023-05-11T20:40:05.850Z,78.80
2023-05-11T20:45:10.310Z,78.60
2023-05-11T20:50:15.154Z,78.60
2023-05-11T20:55:18.471Z,77.40
2023-05-11T21:00:21.924Z,77.70
2023-05-11T21:05:27.090Z,77.20
2023-05-11T21:10:30.074Z,77.00
2023-05-11T21:15:32.690Z,77.00
2023-05-11T21:20:35.888Z,76.90
2023-05-11T21:25:38.944Z,76.70
2023-05-11T21:30:41.931Z,75.40
2023-05-11T21:35:45.072Z,75.10
2023-05-11T21:40:54.961Z,74.00
2023-05-11T21:45:57.724Z,73.60
2023-05-11T21:51:00.477Z,73.10
2023-05-11T21:56:04.253Z,72.80
2023-05-11T22:01:07.727Z,72.80
2023-05-11T22:06:10.790Z,72.60
2023-05-11T22:11:13.551Z,73.10
2023-05-11T22:16:19.243Z,73.50
2023-05-11T22:21:21.933Z,73.30
2023-05-11T22:26:26.953Z,73.60
2023-05-11T22:31:30.413Z,74.70
2023-05-11T22:36:34.519Z,74.00
2023-05-11T22:41:37.223Z,75.00
2023-05-11T22:46:40.059Z,74.70
2023-05-11T22:51:44.371Z,75.40
2023-05-11T22:56:47.465Z,76.20
2023-05-11T23:01:50.425Z,76.10
2023-05-11T23:06:54.264Z,76.50
2023-05-11T23:11:57.485Z,77.00
2023-05-11T23:17:00.293Z,76.80
2023-05-11T23:22:03.220Z,78.00
2023-05-11T23:27:06.187Z,78.70
2023-05-11T23:32:09.449Z,79.20
2023-05-11T23:37:13.998Z,79.80
2023-05-11T23:42:16.866Z,80.40
2023-05-11T23:47:22.916Z,81.10
2023-05-11T23:52:29.972Z,81.90
2023-05-11T23:57:32.937Z,82.70
